createdAt,value
2017-08-05T00:00:17.293Z,0
2017-08-05T00:00:38.946Z,0
2017-08-05T00:01:00.513Z,0
2017-08-05T00:01:22.101Z,0
2017-08-05T00:01:43.745Z,0
2017-08-05T00:02:05.433Z,0
2017-08-05T00:02:27.069Z,0
2017-08-05T00:02:48.777Z,0
2017-08-05T00:03:10.403Z,0
2017-08-05T00:03:31.926Z,0
2017-08-05T00:03:53.625Z,0
2017-08-05T00:04:15.320Z,0
2017-08-05T00:04:36.987Z,0
2017-08-05T00:04:58.675Z,0
2017-08-05T00:05:20.325Z,0
2017-08-05T00:05:41.859Z,0
2017-08-05T00:06:03.339Z,0
2017-08-05T00:06:25.073Z,0
2017-08-05T00:06:46.736Z,0
2017-08-05T00:07:08.435Z,0
2017-08-05T00:07:30.063Z,0
2017-08-05T00:07:51.779Z,0
2017-08-05T00:08:13.452Z,0
2017-08-05T00:08:35.101Z,0
2017-08-05T00:08:56.683Z,0
2017-08-05T00:09:18.255Z,0
2017-08-05T00:09:39.903Z,0
2017-08-05T00:10:01.504Z,0
2017-08-05T00:10:23.125Z,0
2017-08-05T00:10:44.820Z,0
2017-08-05T00:11:06.426Z,0
2017-08-05T00:11:28.055Z,0
2017-08-05T00:11:49.626Z,0
2017-08-05T00:12:11.044Z,0
2017-08-05T00:12:32.720Z,0
2017-08-05T00:12:54.391Z,0
2017-08-05T00:13:15.964Z,0
2017-08-05T00:13:37.628Z,0
2017-08-05T00:13:59.258Z,0
2017-08-05T00:14:20.903Z,0
2017-08-05T00:14:42.578Z,0
2017-08-05T00:15:04.246Z,0
2017-08-05T00:15:25.897Z,0
2017-08-05T00:15:47.470Z,0
2017-08-05T00:16:09.109Z,0
2017-08-05T00:16:30.863Z,0
2017-08-05T00:16:52.426Z,0
2017-08-05T00:17:13.888Z,0
2017-08-05T00:17:35.395Z,0
2017-08-05T00:17:57.069Z,0
2017-08-05T00:18:18.777Z,0
2017-08-05T00:18:40.419Z,0
2017-08-05T00:19:02.076Z,0
2017-08-05T00:19:23.726Z,0
2017-08-05T00:19:45.499Z,0
2017-08-05T00:20:07.150Z,0
2017-08-05T00:20:28.873Z,0
2017-08-05T00:20:50.543Z,0
2017-08-05T00:21:12.202Z,0
2017-08-05T00:21:33.715Z,0
2017-08-05T00:21:55.378Z,0
2017-08-05T00:22:16.990Z,0
2017-08-05T00:22:38.709Z,0
2017-08-05T00:23:00.323Z,0
2017-08-05T00:23:21.929Z,0
2017-08-05T00:23:43.535Z,0
2017-08-05T00:24:05.124Z,0
2017-08-05T00:24:26.722Z,0
2017-08-05T00:24:48.359Z,0
2017-08-05T00:25:10.037Z,0
2017-08-05T00:25:31.657Z,0
2017-08-05T00:25:53.354Z,0
2017-08-05T00:26:14.925Z,0
2017-08-05T00:26:36.590Z,0
2017-08-05T00:26:58.216Z,0
2017-08-05T00:27:19.860Z,0
2017-08-05T00:27:41.540Z,0
2017-08-05T00:28:03.134Z,0
2017-08-05T00:28:24.722Z,0
2017-08-05T00:28:46.362Z,0
2017-08-05T00:29:07.954Z,0
2017-08-05T00:29:29.626Z,0
2017-08-05T00:29:51.291Z,0
2017-08-05T00:30:12.911Z,0
2017-08-05T00:30:34.502Z,0
2017-08-05T00:30:56.081Z,0
2017-08-05T00:31:17.661Z,0
2017-08-05T00:31:39.332Z,0
2017-08-05T00:32:01.022Z,0
2017-08-05T00:32:22.688Z,0
2017-08-05T00:32:44.296Z,0
2017-08-05T00:33:06.001Z,0
2017-08-05T00:33:27.647Z,0
2017-08-05T00:33:49.257Z,0
2017-08-05T00:34:10.964Z,0
2017-08-05T00:34:32.600Z,0
2017-08-05T00:34:54.230Z,0
2017-08-05T00:35:15.870Z,0
2017-08-05T00:35:37.550Z,0
2017-08-05T00:35:59.190Z,0
2017-08-05T00:36:20.866Z,0
2017-08-05T00:36:42.526Z,0
2017-08-05T00:37:04.217Z,0
2017-08-05T00:37:25.849Z,0
2017-08-05T00:37:47.558Z,0
2017-08-05T00:38:09.165Z,0
2017-08-05T00:38:30.806Z,0
2017-08-05T00:38:52.392Z,0
2017-08-05T00:39:13.959Z,0
2017-08-05T00:39:35.602Z,0
2017-08-05T00:39:57.283Z,0
2017-08-05T00:40:19.785Z,0
2017-08-05T00:40:41.406Z,0
2017-08-05T00:41:02.879Z,0
2017-08-05T00:41:24.463Z,0
2017-08-05T00:41:46.093Z,0
2017-08-05T00:42:07.642Z,0
2017-08-05T00:42:29.340Z,0
2017-08-05T00:42:50.960Z,0
2017-08-05T00:43:12.598Z,0
2017-08-05T00:43:34.308Z,0
2017-08-05T00:43:55.760Z,0
2017-08-05T00:44:17.170Z,0
2017-08-05T00:44:38.853Z,0
2017-08-05T00:45:00.550Z,0
2017-08-05T00:45:22.245Z,0
2017-08-05T00:45:43.853Z,0
2017-08-05T00:46:05.436Z,0
2017-08-05T00:46:27.127Z,0
2017-08-05T00:46:48.787Z,0
2017-08-05T00:47:10.449Z,0
2017-08-05T00:47:32.263Z,0
2017-08-05T00:47:53.879Z,0
2017-08-05T00:48:15.553Z,0
2017-08-05T00:48:37.040Z,0
2017-08-05T00:48:58.782Z,0
2017-08-05T00:49:20.442Z,0
2017-08-05T00:49:42.096Z,0
2017-08-05T00:50:03.776Z,0
2017-08-05T00:50:25.274Z,0
2017-08-05T00:50:46.784Z,0
2017-08-05T00:51:08.483Z,0
2017-08-05T00:51:30.194Z,0
2017-08-05T00:51:51.858Z,0
2017-08-05T00:52:13.513Z,0
2017-08-05T00:52:35.172Z,0
2017-08-05T00:52:56.873Z,0
2017-08-05T00:53:18.587Z,0
2017-08-05T00:53:40.268Z,0
2017-08-05T00:54:01.961Z,0
2017-08-05T00:54:23.627Z,0
2017-08-05T00:54:45.296Z,0
2017-08-05T00:55:06.888Z,0
2017-08-05T00:55:28.543Z,0
2017-08-05T00:55:50.233Z,0
2017-08-05T00:56:11.904Z,0
2017-08-05T00:56:33.656Z,0
2017-08-05T00:56:55.328Z,0
2017-08-05T00:57:17.042Z,0
2017-08-05T00:57:38.721Z,0
2017-08-05T00:58:00.448Z,0
2017-08-05T00:58:22.090Z,0
2017-08-05T00:58:43.666Z,0
2017-08-05T00:59:05.340Z,0
2017-08-05T00:59:26.989Z,0
2017-08-05T00:59:48.668Z,0
2017-08-05T01:00:10.369Z,0
2017-08-05T01:00:32.080Z,0
2017-08-05T01:00:53.760Z,0
2017-08-05T01:01:15.458Z,0
2017-08-05T01:01:37.182Z,0
2017-08-05T01:01:58.960Z,0
2017-08-05T01:02:20.637Z,0
2017-08-05T01:02:42.200Z,0
2017-08-05T01:03:03.818Z,0
2017-08-05T01:03:25.383Z,0
2017-08-05T01:03:46.947Z,0
2017-08-05T01:04:08.644Z,0
2017-08-05T01:04:30.314Z,0
2017-08-05T01:04:52.040Z,0
2017-08-05T01:05:13.797Z,0
2017-08-05T01:05:35.437Z,0
2017-08-05T01:05:57.102Z,0
2017-08-05T01:06:18.708Z,0
2017-08-05T01:06:40.289Z,0
2017-08-05T01:07:01.964Z,0
2017-08-05T01:07:23.586Z,0
2017-08-05T01:07:45.285Z,0
2017-08-05T01:08:06.992Z,0
2017-08-05T01:08:28.681Z,0
2017-08-05T01:08:50.435Z,0
2017-08-05T01:09:12.121Z,0
2017-08-05T01:09:33.813Z,0
2017-08-05T01:09:55.602Z,0
2017-08-05T01:10:17.292Z,0
2017-08-05T01:10:38.871Z,0
2017-08-05T01:11:00.337Z,0
2017-08-05T01:11:22.008Z,0
2017-08-05T01:11:43.642Z,0
2017-08-05T01:12:05.353Z,0
2017-08-05T01:12:27.065Z,0
2017-08-05T01:12:48.732Z,0
2017-08-05T01:13:10.597Z,0
2017-08-05T01:13:32.199Z,0
2017-08-05T01:13:53.914Z,0
2017-08-05T01:14:15.530Z,0
2017-08-05T01:14:37.194Z,0
2017-08-05T01:14:58.847Z,0
2017-08-05T01:15:20.508Z,0
2017-08-05T01:15:42.158Z,0
2017-08-05T01:16:03.905Z,0
2017-08-05T01:16:25.567Z,0
2017-08-05T01:16:47.306Z,0
2017-08-05T01:17:09.008Z,0
2017-08-05T01:17:30.584Z,0
2017-08-05T01:17:52.207Z,0
2017-08-05T01:18:13.683Z,0
2017-08-05T01:18:35.296Z,0
2017-08-05T01:18:56.910Z,0
2017-08-05T01:19:18.509Z,0
2017-08-05T01:19:40.148Z,0
2017-08-05T01:20:01.832Z,0
2017-08-05T01:20:23.579Z,0
2017-08-05T01:20:45.236Z,0
2017-08-05T01:21:06.931Z,0
2017-08-05T01:21:28.705Z,0
2017-08-05T01:21:50.369Z,0
2017-08-05T01:22:11.987Z,0
2017-08-05T01:22:33.626Z,0
2017-08-05T01:22:55.319Z,0
2017-08-05T01:23:17.044Z,0
2017-08-05T01:23:38.826Z,0
2017-08-05T01:24:00.445Z,0
2017-08-05T01:24:22.152Z,0
2017-08-05T01:24:43.821Z,0
2017-08-05T01:25:05.460Z,0
2017-08-05T01:25:27.061Z,0
2017-08-05T01:25:48.671Z,0
2017-08-05T01:26:10.335Z,0
2017-08-05T01:26:31.994Z,0
2017-08-05T01:26:53.534Z,0
2017-08-05T01:27:15.022Z,0
2017-08-05T01:27:36.713Z,0
2017-08-05T01:27:58.427Z,0
2017-08-05T01:28:20.021Z,0
2017-08-05T01:28:41.510Z,0
2017-08-05T01:29:03.156Z,0
2017-08-05T01:29:24.865Z,0
2017-08-05T01:29:46.542Z,0
2017-08-05T01:30:08.282Z,0
2017-08-05T01:30:29.819Z,0
2017-08-05T01:30:51.523Z,0
2017-08-05T01:31:13.251Z,0
2017-08-05T01:31:34.967Z,0
2017-08-05T01:31:56.444Z,0
2017-08-05T01:32:17.986Z,0
2017-08-05T01:32:39.589Z,0
2017-08-05T01:33:01.322Z,0
2017-08-05T01:33:22.930Z,0
2017-08-05T01:33:44.497Z,0
2017-08-05T01:34:06.084Z,0
2017-08-05T01:34:27.771Z,0
2017-08-05T01:34:49.434Z,0
2017-08-05T01:35:11.271Z,0
2017-08-05T01:35:32.909Z,0
2017-08-05T01:35:54.592Z,0
2017-08-05T01:36:16.287Z,0
2017-08-05T01:36:37.902Z,0
2017-08-05T01:36:59.594Z,0
2017-08-05T01:37:21.258Z,0
2017-08-05T01:37:42.920Z,0
2017-08-05T01:38:04.432Z,0
2017-08-05T01:38:26.118Z,0
2017-08-05T01:38:47.760Z,0
2017-08-05T01:39:09.241Z,0
2017-08-05T01:39:30.697Z,0
2017-08-05T01:39:52.350Z,0
2017-08-05T01:40:14.114Z,0
2017-08-05T01:40:35.916Z,0
2017-08-05T01:40:57.512Z,0
2017-08-05T01:41:19.101Z,0
2017-08-05T01:41:40.524Z,0
2017-08-05T01:42:02.164Z,0
2017-08-05T01:42:23.644Z,0
2017-08-05T01:42:45.383Z,0
2017-08-05T01:43:06.963Z,0
2017-08-05T01:43:28.609Z,0
2017-08-05T01:43:50.059Z,0
2017-08-05T01:44:11.486Z,0
2017-08-05T01:44:33.072Z,0
2017-08-05T01:44:54.764Z,0
2017-08-05T01:45:16.479Z,0
2017-08-05T01:45:38.187Z,0
2017-08-05T01:45:59.916Z,0
2017-08-05T01:46:21.625Z,0
2017-08-05T01:46:43.337Z,0
2017-08-05T01:47:05.044Z,0
2017-08-05T01:47:26.676Z,0
2017-08-05T01:47:48.389Z,0
2017-08-05T01:48:10.060Z,0
2017-08-05T01:48:31.738Z,0
2017-08-05T01:48:53.385Z,0
2017-08-05T01:49:14.882Z,0
2017-08-05T01:49:36.469Z,0
2017-08-05T01:49:58.078Z,0
2017-08-05T01:50:19.711Z,0
2017-08-05T01:50:41.383Z,0
2017-08-05T01:51:02.898Z,0
2017-08-05T01:51:24.314Z,0
2017-08-05T01:51:45.737Z,0
2017-08-05T01:52:07.441Z,0
2017-08-05T01:52:29.191Z,0
2017-08-05T01:52:50.858Z,0
2017-08-05T01:53:12.635Z,0
2017-08-05T01:53:34.392Z,0
2017-08-05T01:53:56.117Z,0
2017-08-05T01:54:17.786Z,0
2017-08-05T01:54:39.539Z,0
2017-08-05T01:55:01.176Z,0
2017-08-05T01:55:22.756Z,0
2017-08-05T01:55:44.432Z,0
2017-08-05T01:56:06.076Z,0
2017-08-05T01:56:27.699Z,0
2017-08-05T01:56:49.360Z,0
2017-08-05T01:57:11.048Z,0
2017-08-05T01:57:32.494Z,0
2017-08-05T01:57:53.944Z,0
2017-08-05T01:58:15.405Z,0
2017-08-05T01:58:37.106Z,0
2017-08-05T01:58:58.687Z,0
2017-08-05T01:59:20.373Z,0
2017-08-05T01:59:42.054Z,0
2017-08-05T02:00:03.687Z,0
2017-08-05T02:00:25.184Z,0
2017-08-05T02:00:46.700Z,0
2017-08-05T02:01:08.236Z,0
2017-08-05T02:01:29.898Z,0
2017-08-05T02:01:51.467Z,0
2017-08-05T02:02:12.997Z,0
2017-08-05T02:02:34.614Z,0
2017-08-05T02:02:56.308Z,0
2017-08-05T02:03:17.977Z,0
2017-08-05T02:03:39.702Z,0
2017-08-05T02:04:01.287Z,0
2017-08-05T02:04:22.914Z,0
2017-08-05T02:04:44.576Z,0
2017-08-05T02:05:06.370Z,0
2017-08-05T02:05:27.810Z,0
2017-08-05T02:05:49.247Z,0
2017-08-05T02:06:10.704Z,0
2017-08-05T02:06:32.292Z,0
2017-08-05T02:06:54.079Z,0
2017-08-05T02:07:15.770Z,0
2017-08-05T02:07:37.542Z,0
2017-08-05T02:07:59.115Z,0
2017-08-05T02:08:20.735Z,0
2017-08-05T02:08:42.454Z,0
2017-08-05T02:09:04.097Z,0
2017-08-05T02:09:25.661Z,0
2017-08-05T02:09:47.135Z,0
2017-08-05T02:10:08.746Z,0
2017-08-05T02:10:30.464Z,0
2017-08-05T02:10:52.015Z,0
2017-08-05T02:11:13.429Z,0
2017-08-05T02:11:34.919Z,0
2017-08-05T02:11:56.567Z,0
2017-08-05T02:12:18.217Z,0
2017-08-05T02:12:39.789Z,0
2017-08-05T02:13:01.432Z,0
2017-08-05T02:13:23.140Z,0
2017-08-05T02:13:44.924Z,0
2017-08-05T02:14:06.581Z,0
2017-08-05T02:14:28.252Z,0
2017-08-05T02:14:49.725Z,0
2017-08-05T02:15:11.185Z,0
2017-08-05T02:15:32.974Z,0
2017-08-05T02:15:54.734Z,0
2017-08-05T02:16:16.482Z,0
2017-08-05T02:16:37.960Z,0
2017-08-05T02:16:59.424Z,0
2017-08-05T02:17:21.150Z,0
2017-08-05T02:17:42.827Z,0
2017-08-05T02:18:04.426Z,0
2017-08-05T02:18:26.277Z,0
2017-08-05T02:18:47.928Z,0
2017-08-05T02:19:09.583Z,0
2017-08-05T02:19:31.254Z,0
2017-08-05T02:19:52.923Z,0
2017-08-05T02:20:14.625Z,0
2017-08-05T02:20:36.351Z,0
2017-08-05T02:20:57.977Z,0
2017-08-05T02:21:19.660Z,0
2017-08-05T02:21:41.375Z,0
2017-08-05T02:22:02.990Z,0
2017-08-05T02:22:24.702Z,0
2017-08-05T02:22:46.381Z,0
2017-08-05T02:23:08.066Z,0
2017-08-05T02:23:29.732Z,0
2017-08-05T02:23:51.407Z,0
2017-08-05T02:24:13.107Z,0
2017-08-05T02:24:34.809Z,0
2017-08-05T02:24:56.476Z,0
2017-08-05T02:25:18.170Z,0
2017-08-05T02:25:39.786Z,0
2017-08-05T02:26:01.528Z,0
2017-08-05T02:26:23.262Z,0
2017-08-05T02:26:44.878Z,0
2017-08-05T02:27:06.527Z,0
2017-08-05T02:27:28.058Z,0
2017-08-05T02:27:49.766Z,0
2017-08-05T02:28:11.439Z,0
2017-08-05T02:28:33.248Z,0
2017-08-05T02:28:54.977Z,0
2017-08-05T02:29:16.736Z,0
2017-08-05T02:29:38.475Z,0
2017-08-05T02:30:00.097Z,0
2017-08-05T02:30:21.758Z,0
2017-08-05T02:30:43.454Z,0
2017-08-05T02:31:05.207Z,0
2017-08-05T02:31:26.767Z,0
2017-08-05T02:31:48.305Z,0
2017-08-05T02:32:09.839Z,0
2017-08-05T02:32:31.553Z,0
2017-08-05T02:32:53.281Z,0
2017-08-05T02:33:15.033Z,0
2017-08-05T02:33:36.551Z,0
2017-08-05T02:33:58.186Z,0
2017-08-05T02:34:19.904Z,0
2017-08-05T02:34:41.554Z,0
2017-08-05T02:35:03.406Z,0
2017-08-05T02:35:25.053Z,0
2017-08-05T02:35:46.723Z,0
2017-08-05T02:36:08.541Z,0
2017-08-05T02:36:30.186Z,0
2017-08-05T02:36:51.562Z,0
2017-08-05T02:37:12.946Z,0
2017-08-05T02:37:34.330Z,0
2017-08-05T02:37:55.714Z,0
2017-08-05T02:38:17.095Z,0
2017-08-05T02:38:38.521Z,0
2017-08-05T02:38:59.902Z,0
2017-08-05T02:39:21.288Z,0
2017-08-05T02:39:42.671Z,0
2017-08-05T02:40:04.049Z,0
2017-08-05T02:40:25.428Z,0
2017-08-05T02:40:46.810Z,0
2017-08-05T02:41:08.190Z,0
2017-08-05T02:41:29.574Z,0
2017-08-05T02:41:50.953Z,0
2017-08-05T02:42:12.334Z,0
2017-08-05T02:42:33.715Z,0
2017-08-05T02:42:55.098Z,0
2017-08-05T02:43:16.476Z,0
2017-08-05T02:43:37.856Z,0
2017-08-05T02:43:59.242Z,0
2017-08-05T02:44:20.620Z,0
2017-08-05T02:44:42.005Z,0
2017-08-05T02:45:03.388Z,0
2017-08-05T02:45:24.764Z,0
2017-08-05T02:45:46.145Z,0
2017-08-05T02:46:07.529Z,0
2017-08-05T02:46:28.910Z,0
2017-08-05T02:46:50.291Z,0
2017-08-05T02:47:11.672Z,0
2017-08-05T02:47:33.053Z,0
2017-08-05T02:47:54.432Z,0
2017-08-05T02:48:15.815Z,0
2017-08-05T02:48:37.197Z,0
2017-08-05T02:48:59.087Z,0
2017-08-05T02:49:20.444Z,0
2017-08-05T02:49:41.824Z,0
2017-08-05T02:50:03.207Z,0
2017-08-05T02:50:24.587Z,0
2017-08-05T02:50:45.965Z,0
2017-08-05T02:51:07.343Z,0
2017-08-05T02:51:28.725Z,0
2017-08-05T02:51:50.108Z,0
2017-08-05T02:52:11.495Z,0
2017-08-05T02:52:32.870Z,0
2017-08-05T02:52:54.251Z,0
2017-08-05T02:53:15.633Z,0
2017-08-05T02:53:37.010Z,0
2017-08-05T02:53:58.391Z,0
2017-08-05T02:54:19.775Z,0
2017-08-05T02:54:41.157Z,0
2017-08-05T02:55:02.535Z,0
2017-08-05T02:55:23.915Z,0
2017-08-05T02:55:45.298Z,0
2017-08-05T02:56:06.681Z,0
2017-08-05T02:56:28.061Z,0
2017-08-05T02:56:49.442Z,0
2017-08-05T02:57:10.824Z,0
2017-08-05T02:57:32.222Z,0
2017-08-05T02:57:53.605Z,0
2017-08-05T02:58:14.987Z,0
2017-08-05T02:58:36.379Z,0
2017-08-05T02:58:57.779Z,0
2017-08-05T02:59:19.172Z,0
2017-08-05T02:59:40.555Z,0
2017-08-05T03:00:01.933Z,0
2017-08-05T03:00:23.318Z,0
2017-08-05T03:00:44.693Z,0
2017-08-05T03:01:06.204Z,0
2017-08-05T03:01:27.582Z,0
2017-08-05T03:01:48.967Z,0
2017-08-05T03:02:10.363Z,0
2017-08-05T03:02:31.741Z,0
2017-08-05T03:02:53.125Z,0
2017-08-05T03:03:14.507Z,0
2017-08-05T03:03:35.889Z,0
2017-08-05T03:03:57.270Z,0
2017-08-05T03:04:18.653Z,0
2017-08-05T03:04:40.049Z,0
2017-08-05T03:05:01.431Z,0
2017-08-05T03:05:22.826Z,0
2017-08-05T03:05:44.197Z,0
2017-08-05T03:06:05.576Z,0
2017-08-05T03:06:26.955Z,0
2017-08-05T03:06:48.336Z,0
2017-08-05T03:07:09.718Z,0
2017-08-05T03:07:31.100Z,0
2017-08-05T03:07:52.512Z,0
2017-08-05T03:08:13.895Z,0
2017-08-05T03:08:35.274Z,0
2017-08-05T03:08:56.656Z,0
2017-08-05T03:09:18.058Z,0
2017-08-05T03:09:39.428Z,0
2017-08-05T03:10:00.803Z,0
2017-08-05T03:10:22.187Z,0
2017-08-05T03:10:43.572Z,0
2017-08-05T03:11:04.955Z,0
2017-08-05T03:11:26.337Z,0
2017-08-05T03:11:47.720Z,0
2017-08-05T03:12:09.103Z,0
2017-08-05T03:12:30.483Z,0
2017-08-05T03:12:51.899Z,0
2017-08-05T03:13:13.275Z,0
2017-08-05T03:13:34.659Z,0
2017-08-05T03:13:56.072Z,0
2017-08-05T03:14:17.456Z,0
2017-08-05T03:14:38.868Z,0
2017-08-05T03:15:00.248Z,0
2017-08-05T03:15:21.628Z,0
2017-08-05T03:15:43.016Z,0
2017-08-05T03:16:04.400Z,0
2017-08-05T03:16:25.777Z,0
2017-08-05T03:16:47.160Z,0
2017-08-05T03:17:08.544Z,0
2017-08-05T03:17:29.925Z,0
2017-08-05T03:17:51.306Z,0
2017-08-05T03:18:12.686Z,0
2017-08-05T03:18:34.066Z,0
2017-08-05T03:18:55.451Z,0
2017-08-05T03:19:16.845Z,0
2017-08-05T03:19:38.230Z,0
2017-08-05T03:19:59.607Z,0
2017-08-05T03:20:20.987Z,0
2017-08-05T03:20:42.367Z,0
2017-08-05T03:21:03.749Z,0
2017-08-05T03:21:25.128Z,0
2017-08-05T03:21:46.574Z,0
2017-08-05T03:22:08.079Z,0
2017-08-05T03:22:29.468Z,0
2017-08-05T03:22:50.840Z,0
2017-08-05T03:23:12.220Z,0
2017-08-05T03:23:33.600Z,0
2017-08-05T03:23:54.984Z,0
2017-08-05T03:24:16.366Z,0
2017-08-05T03:24:37.747Z,0
2017-08-05T03:24:59.126Z,0
2017-08-05T03:25:20.510Z,0
2017-08-05T03:25:41.889Z,0
2017-08-05T03:26:03.270Z,0
2017-08-05T03:26:24.650Z,0
2017-08-05T03:26:46.031Z,0
2017-08-05T03:27:07.412Z,0
2017-08-05T03:27:28.809Z,0
2017-08-05T03:27:50.191Z,0
2017-08-05T03:28:11.570Z,0
2017-08-05T03:28:32.949Z,0
2017-08-05T03:28:54.365Z,0
2017-08-05T03:29:15.750Z,0
2017-08-05T03:29:37.133Z,0
2017-08-05T03:29:58.513Z,0
2017-08-05T03:30:19.891Z,0
2017-08-05T03:30:41.275Z,0
2017-08-05T03:31:02.653Z,0
2017-08-05T03:31:24.033Z,0
2017-08-05T03:31:45.414Z,0
2017-08-05T03:32:06.796Z,0
2017-08-05T03:32:28.176Z,0
2017-08-05T03:32:49.555Z,0
2017-08-05T03:33:10.933Z,0
2017-08-05T03:33:32.312Z,0
2017-08-05T03:33:53.693Z,4
2017-08-05T03:34:15.075Z,4
2017-08-05T03:34:36.460Z,4
2017-08-05T03:34:57.838Z,0
2017-08-05T03:35:19.222Z,0
2017-08-05T03:35:40.604Z,0
2017-08-05T03:36:01.985Z,0
2017-08-05T03:36:23.365Z,0
2017-08-05T03:36:44.745Z,0
2017-08-05T03:37:06.125Z,4
2017-08-05T03:37:27.510Z,4
2017-08-05T03:37:48.894Z,4
2017-08-05T03:38:10.275Z,0
2017-08-05T03:38:31.656Z,0
2017-08-05T03:38:53.041Z,0
2017-08-05T03:39:14.416Z,4
2017-08-05T03:39:35.806Z,4
2017-08-05T03:39:57.184Z,4
2017-08-05T03:40:18.561Z,0
2017-08-05T03:40:39.975Z,4
2017-08-05T03:41:01.355Z,4
2017-08-05T03:41:22.739Z,4
2017-08-05T03:41:44.152Z,4
2017-08-05T03:42:05.535Z,4
2017-08-05T03:42:26.946Z,4
2017-08-05T03:42:48.327Z,4
2017-08-05T03:43:09.749Z,8
2017-08-05T03:43:31.086Z,4
2017-08-05T03:43:52.468Z,4
2017-08-05T03:44:13.852Z,8
2017-08-05T03:44:35.235Z,8
2017-08-05T03:44:56.618Z,4
2017-08-05T03:45:17.993Z,8
2017-08-05T03:45:39.373Z,8
2017-08-05T03:46:00.752Z,8
2017-08-05T03:46:22.133Z,8
2017-08-05T03:46:43.515Z,8
2017-08-05T03:47:04.898Z,8
2017-08-05T03:47:26.277Z,8
2017-08-05T03:47:47.657Z,12
2017-08-05T03:48:09.038Z,8
2017-08-05T03:48:30.422Z,12
2017-08-05T03:48:51.803Z,12
2017-08-05T03:49:13.184Z,12
2017-08-05T03:49:34.698Z,16
2017-08-05T03:49:56.088Z,12
2017-08-05T03:50:17.467Z,16
2017-08-05T03:50:38.852Z,16
2017-08-05T03:51:00.232Z,16
2017-08-05T03:51:21.617Z,16
2017-08-05T03:51:42.998Z,20
2017-08-05T03:52:04.381Z,16
2017-08-05T03:52:25.762Z,20
2017-08-05T03:52:47.177Z,20
2017-08-05T03:53:08.558Z,20
2017-08-05T03:53:29.943Z,20
2017-08-05T03:53:51.329Z,20
2017-08-05T03:54:12.709Z,24
2017-08-05T03:54:34.091Z,24
2017-08-05T03:54:55.472Z,24
2017-08-05T03:55:16.855Z,28
2017-08-05T03:55:38.235Z,28
2017-08-05T03:55:59.621Z,32
2017-08-05T03:56:21.010Z,32
2017-08-05T03:56:42.395Z,32
2017-08-05T03:57:03.778Z,32
2017-08-05T03:57:25.164Z,36
2017-08-05T03:57:46.539Z,36
2017-08-05T03:58:07.925Z,36
2017-08-05T03:58:29.304Z,36
2017-08-05T03:58:50.687Z,40
2017-08-05T03:59:12.068Z,40
2017-08-05T03:59:33.452Z,40
2017-08-05T03:59:54.832Z,44
2017-08-05T04:00:16.212Z,44
2017-08-05T04:00:37.946Z,44
2017-08-05T04:00:59.331Z,48
2017-08-05T04:01:20.712Z,48
2017-08-05T04:01:42.093Z,52
2017-08-05T04:02:03.486Z,52
2017-08-05T04:02:24.863Z,52
2017-08-05T04:02:46.263Z,56
2017-08-05T04:03:07.650Z,56
2017-08-05T04:03:29.065Z,60
2017-08-05T04:03:50.449Z,60
2017-08-05T04:04:11.830Z,64
2017-08-05T04:04:33.216Z,64
2017-08-05T04:04:54.596Z,68
2017-08-05T04:05:15.981Z,68
2017-08-05T04:05:37.390Z,72
2017-08-05T04:05:58.775Z,72
2017-08-05T04:06:20.157Z,72
2017-08-05T04:06:41.539Z,76
2017-08-05T04:07:02.922Z,80
2017-08-05T04:07:24.303Z,84
2017-08-05T04:07:45.683Z,84
2017-08-05T04:08:07.065Z,84
2017-08-05T04:08:28.481Z,88
2017-08-05T04:08:49.865Z,92
2017-08-05T04:09:11.249Z,96
2017-08-05T04:09:32.632Z,96
2017-08-05T04:09:54.014Z,100
2017-08-05T04:10:15.395Z,104
2017-08-05T04:10:36.788Z,104
2017-08-05T04:10:58.160Z,108
2017-08-05T04:11:19.576Z,108
2017-08-05T04:11:40.959Z,112
2017-08-05T04:12:02.346Z,112
2017-08-05T04:12:23.728Z,116
2017-08-05T04:12:45.110Z,116
2017-08-05T04:13:06.498Z,124
2017-08-05T04:13:27.873Z,124
2017-08-05T04:13:49.258Z,128
2017-08-05T04:14:10.642Z,132
2017-08-05T04:14:32.028Z,136
2017-08-05T04:14:53.430Z,140
2017-08-05T04:15:14.789Z,140
2017-08-05T04:15:36.177Z,144
2017-08-05T04:15:57.555Z,148
2017-08-05T04:16:18.940Z,152
2017-08-05T04:16:40.325Z,152
2017-08-05T04:17:01.710Z,156
2017-08-05T04:17:23.090Z,160
2017-08-05T04:17:44.473Z,164
2017-08-05T04:18:05.855Z,168
2017-08-05T04:18:27.237Z,172
2017-08-05T04:18:48.662Z,172
2017-08-05T04:19:10.049Z,180
2017-08-05T04:19:31.433Z,184
2017-08-05T04:19:52.854Z,184
2017-08-05T04:20:15.123Z,188
2017-08-05T04:20:36.467Z,192
2017-08-05T04:20:57.850Z,196
2017-08-05T04:21:19.270Z,200
2017-08-05T04:21:40.656Z,204
2017-08-05T04:22:02.050Z,208
2017-08-05T04:22:23.432Z,212
2017-08-05T04:22:44.812Z,216
2017-08-05T04:23:06.198Z,220
2017-08-05T04:23:27.580Z,224
2017-08-05T04:23:48.970Z,228
2017-08-05T04:24:10.354Z,232
2017-08-05T04:24:31.739Z,236
2017-08-05T04:24:53.122Z,240
2017-08-05T04:25:14.505Z,244
2017-08-05T04:25:35.890Z,248
2017-08-05T04:25:57.275Z,248
2017-08-05T04:26:18.665Z,256
2017-08-05T04:26:40.045Z,260
2017-08-05T04:27:01.430Z,264
2017-08-05T04:27:22.812Z,268
2017-08-05T04:27:44.197Z,272
2017-08-05T04:28:05.580Z,272
2017-08-05T04:28:26.963Z,276
2017-08-05T04:28:48.350Z,280
2017-08-05T04:29:09.735Z,284
2017-08-05T04:29:31.121Z,288
2017-08-05T04:29:52.505Z,292
2017-08-05T04:30:13.892Z,296
2017-08-05T04:30:35.275Z,304
2017-08-05T04:30:56.657Z,308
2017-08-05T04:31:18.041Z,312
2017-08-05T04:31:39.427Z,312
2017-08-05T04:32:00.810Z,316
2017-08-05T04:32:22.193Z,324
2017-08-05T04:32:43.573Z,328
2017-08-05T04:33:04.959Z,328
2017-08-05T04:33:26.342Z,332
2017-08-05T04:33:47.731Z,340
2017-08-05T04:34:09.111Z,344
2017-08-05T04:34:30.499Z,348
2017-08-05T04:34:51.883Z,348
2017-08-05T04:35:13.265Z,356
2017-08-05T04:35:34.651Z,360
2017-08-05T04:35:56.034Z,364
2017-08-05T04:36:17.451Z,368
2017-08-05T04:36:38.838Z,372
2017-08-05T04:37:00.223Z,376
2017-08-05T04:37:21.605Z,384
2017-08-05T04:37:43.025Z,392
2017-08-05T04:38:04.440Z,396
2017-08-05T04:38:25.823Z,404
2017-08-05T04:38:47.209Z,408
2017-08-05T04:39:08.593Z,412
2017-08-05T04:39:29.978Z,424
2017-08-05T04:39:51.359Z,432
2017-08-05T04:40:12.742Z,440
2017-08-05T04:40:34.128Z,448
2017-08-05T04:40:55.511Z,460
2017-08-05T04:41:16.898Z,476
2017-08-05T04:41:38.280Z,492
2017-08-05T04:41:59.664Z,508
2017-08-05T04:42:21.046Z,528
2017-08-05T04:42:42.434Z,552
2017-08-05T04:43:03.823Z,572
2017-08-05T04:43:25.207Z,600
2017-08-05T04:43:46.590Z,628
2017-08-05T04:44:07.978Z,660
2017-08-05T04:44:29.366Z,688
2017-08-05T04:44:50.747Z,720
2017-08-05T04:45:12.129Z,756
2017-08-05T04:45:33.510Z,796
2017-08-05T04:45:54.894Z,840
2017-08-05T04:46:16.279Z,888
2017-08-05T04:46:37.663Z,928
2017-08-05T04:46:59.054Z,972
2017-08-05T04:47:20.435Z,1012
2017-08-05T04:47:41.844Z,1052
2017-08-05T04:48:03.230Z,1092
2017-08-05T04:48:24.615Z,1128
2017-08-05T04:48:46.000Z,1152
2017-08-05T04:49:07.386Z,1180
2017-08-05T04:49:28.776Z,1196
2017-08-05T04:49:50.157Z,1208
2017-08-05T04:50:11.546Z,1220
2017-08-05T04:50:33.786Z,1228
2017-08-05T04:50:55.164Z,1232
2017-08-05T04:51:16.549Z,1232
2017-08-05T04:51:37.934Z,1232
2017-08-05T04:51:59.315Z,1240
2017-08-05T04:52:20.722Z,1244
2017-08-05T04:52:42.113Z,1248
2017-08-05T04:53:03.498Z,1260
2017-08-05T04:53:24.899Z,1264
2017-08-05T04:53:46.278Z,1264
2017-08-05T04:54:07.668Z,1260
2017-08-05T04:54:29.050Z,1260
2017-08-05T04:54:50.434Z,1260
2017-08-05T04:55:11.819Z,1260
2017-08-05T04:55:33.204Z,1264
2017-08-05T04:55:54.585Z,1272
2017-08-05T04:56:15.971Z,1272
2017-08-05T04:56:37.357Z,1276
2017-08-05T04:56:58.747Z,1280
2017-08-05T04:57:20.140Z,1280
2017-08-05T04:57:41.524Z,1284
2017-08-05T04:58:02.908Z,1292
2017-08-05T04:58:24.295Z,1296
2017-08-05T04:58:45.680Z,1308
2017-08-05T04:59:07.066Z,1320
2017-08-05T04:59:28.452Z,1324
2017-08-05T04:59:49.838Z,1332
2017-08-05T05:00:11.220Z,1332
2017-08-05T05:00:32.608Z,1332
2017-08-05T05:00:53.991Z,1340
2017-08-05T05:01:15.376Z,1348
2017-08-05T05:01:36.762Z,1352
2017-08-05T05:01:58.152Z,1360
2017-08-05T05:02:19.545Z,1360
2017-08-05T05:02:40.930Z,1368
2017-08-05T05:03:02.316Z,1364
2017-08-05T05:03:23.713Z,1368
2017-08-05T05:03:45.096Z,1364
2017-08-05T05:04:06.486Z,1356
2017-08-05T05:04:27.874Z,1356
2017-08-05T05:04:49.295Z,1356
2017-08-05T05:05:10.677Z,1360
2017-08-05T05:05:32.058Z,1356
2017-08-05T05:05:53.450Z,1356
2017-08-05T05:06:14.836Z,1364
2017-08-05T05:06:36.222Z,1368
2017-08-05T05:06:57.936Z,1360
2017-08-05T05:07:19.350Z,1356
2017-08-05T05:07:40.736Z,1348
2017-08-05T05:08:02.116Z,1340
2017-08-05T05:08:23.502Z,1344
2017-08-05T05:08:44.888Z,1348
2017-08-05T05:09:06.273Z,1352
2017-08-05T05:09:27.663Z,1332
2017-08-05T05:09:49.089Z,1352
2017-08-05T05:10:10.480Z,1396
2017-08-05T05:10:31.862Z,1412
2017-08-05T05:10:53.255Z,1428
2017-08-05T05:11:14.638Z,1444
2017-08-05T05:11:36.020Z,1468
2017-08-05T05:11:57.406Z,1488